Terminal Aerodrome Forecast
Issued by NWS Melbourne, FL

Current Version | Previous Version | Text Only | Print | Product List | Glossary On
Versions: 1 2 3 4 5 6 7 8 9 10 11 12 13 14 15 16 17 18 19 20 21 22 23 24
000
FTUS42 KMLB 232300
TAFMCO
TAF
KMCO 232339Z 2400/2424 16005KT P6SM VCTS FEW050CB SCT110 SCT250
     FM240200 VRB02KT P6SM FEW005 SCT250
     FM241400 23005KT P6SM SCT025 SCT250
     FM242000 21007KT P6SM VCTS SCT045CB BKN250=

USA.gov is the U.S. government's official web portal to all federal, state and local government web resources and services.